Grand Turk — MXFI5 — position and weather

sailwx.info

Track history (hours):
 
Tides and Currents Weather Stations Pressure Air Temp Water Temp Dewpoint Dewpoint Depression Visibility Wind Speed Wind Dir Waves Ship Positions

Grand Turk (United Kingdom)

Replica 18th century frigate used in BBC TV miniseries of C.S. Forester's Horatio Hornblower novels, as well as other TV and movie work.

Ship's website: http://www.turks.co.uk/grand_turk.htm

Last reported at 2010-Jul-03 17:33 UTC. Time now 2019-Sep-21 04:39 UTC.
Position N 48°40' W 002°11'.
Warning: this ship's position is years out of date!

Type: Sailing vessel. MMSI: 232004009.

Date/timePositionNaut miles runAvg speedWind from/ knotsBaromVisibWave heightAir tempDewpointWater temp
2010-Jul-03 17:33N 48°40' W 002°11'2 1.4
2010-Jul-03 16:21N 48°40' W 002°13'1 1.5
2010-Jul-03 15:29N 48°41' W 002°13'1 1.1
2010-Jul-03 14:12N 48°42' W 002°15'0 0.3
2010-Jul-03 13:13N 48°42' W 002°16'0 0.3
2010-Jul-03 12:22N 48°42' W 002°16'2 1.8
2010-Jul-03 11:27N 48°42' W 002°19'5 4.9
2010-Jul-03 10:32N 48°41' W 002°12'7 3.7
2010-Jul-03 08:32N 48°39' W 002°01'0 0.0
2010-Jul-03 07:23N 48°39' W 002°01'  
Track history (hours):
 
Tides and Currents Weather Stations Pressure Air Temp Water Temp Dewpoint Dewpoint Depression Visibility Wind Speed Wind Dir Waves Ship Positions

Grand Turk (United Kingdom)

Replica 18th century frigate used in BBC TV miniseries of C.S. Forester's Horatio Hornblower novels, as well as other TV and movie work.

Ship's website: http://www.turks.co.uk/grand_turk.htm

Last reported at 2010-Jul-03 17:33 UTC. Time now 2019-Sep-21 04:39 UTC.
Position N 48°40' W 002°11'.
Warning: this ship's position is years out of date!

Type: Sailing vessel. MMSI: 232004009.

Date/timePositionNaut miles runAvg speedWind from/ knotsBaromVisibWave heightAir tempDewpointWater temp
2010-Jul-03 17:33N 48°40' W 002°11'2 1.4
2010-Jul-03 16:21N 48°40' W 002°13'1 1.5
2010-Jul-03 15:29N 48°41' W 002°13'1 1.1
2010-Jul-03 14:12N 48°42' W 002°15'0 0.3
2010-Jul-03 13:13N 48°42' W 002°16'0 0.3
2010-Jul-03 12:22N 48°42' W 002°16'2 1.8
2010-Jul-03 11:27N 48°42' W 002°19'5 4.9
2010-Jul-03 10:32N 48°41' W 002°12'7 3.7
2010-Jul-03 08:32N 48°39' W 002°01'0 0.0
2010-Jul-03 07:23N 48°39' W 002°01'  

Dump ship's entire track history